Vaduz, Liechtenstein

9:26 AM CET on December 22, 2014 (GMT +0100)
IOBERLAN3 | Change Station
CLOSE
Current Station
Personal Weather Station
Location: Vaduz, Oberland
Elevation: 1690 ft
Nearby Weather Stations

Elev 1690 ft 47.15 °N, 9.52 °E | Updated 1 minute ago

Clear
Clear
36.3 °F
Feels Like 36 °F
N
3.0
Wind Variable Wind from NE
Gusts 8.0 mph

Today
High -- | Low -- °F
--% Chance of Precip.
Yesterday
High -- | Low -- °F
Precip. -- in
8:05 AM 4:35 PM
New Moon, 0% visible
Pressure 30.42 in
Visibility -9999.0 miles
Clouds
Windchill 36 °F
Dew Point 27 °F
Humidity 68%
Rainfall 0.00 in
Snow Depth Not available.
UV 0.0 out of 12
Pollen Not available.
Air Quality Not available.
Flu Activity Not available.
METAR LSZR 220820Z VRB02KT CAVOK M01/M02 Q1030 NOSIG RMK D

More Conditions Fewer Conditions

Pressure 30.42 in
Visibility -9999.0 miles
Clouds
Windchill 36 °F
Dew Point 27 °F
Humidity 68%
Rainfall 0.00 in
Snow Depth Not available.
UV 0.0 out of 12
Pollen Not available.
Air Quality Not available.
Flu Activity Not available.
METAR LSZR 220820Z VRB02KT CAVOK M01/M02 Q1030 NOSIG RMK D

More Conditions Fewer Conditions

10-Day Weather Forecast

Almanac

Astronomy

Dec. 22, 2014 Rise Set
Actual Time
Civil Twilight
Nautical Twilight
Astronomical Twilight
Moon
Length of Visible Light
Length of Day
Tomorrow will be .
, % of the Moon is Illuminated

Today's Extremes

Country Highs Country Lows

Community

WunderPhotos

Upload Photos

1,779,564 photos uploaded!

WunderBlogs® & News

Nearby

Air Quality

  Air Quality AQ Index Pollutant
Not available.

Snow Depth

Station Depth Elevation

Earthquake Activity

City Distance Mag. Time & Date
Minimum magnitude displayed is 2.5.

Coastal Water Temperatures

Place Temperature

Nearby Weather Stations